createdAt,value
2018-06-25T00:00:21.074Z,0
2018-06-25T00:01:21.783Z,0
2018-06-25T00:02:22.491Z,0
2018-06-25T00:03:23.200Z,0
2018-06-25T00:04:23.912Z,0
2018-06-25T00:05:24.636Z,0
2018-06-25T00:06:25.347Z,0
2018-06-25T00:07:26.059Z,0
2018-06-25T00:08:26.768Z,0
2018-06-25T00:09:27.477Z,0
2018-06-25T00:10:28.185Z,0
2018-06-25T00:11:28.894Z,0
2018-06-25T00:12:29.617Z,0
2018-06-25T00:13:30.327Z,0
2018-06-25T00:14:31.036Z,0
2018-06-25T00:15:31.744Z,0
2018-06-25T00:16:32.453Z,0
2018-06-25T00:17:33.163Z,0
2018-06-25T00:18:33.873Z,0
2018-06-25T00:19:34.584Z,0
2018-06-25T00:20:35.295Z,0
2018-06-25T00:21:36.011Z,0
2018-06-25T00:22:36.731Z,0
2018-06-25T00:23:37.437Z,0
2018-06-25T00:24:38.146Z,0
2018-06-25T00:25:38.864Z,0
2018-06-25T00:26:39.566Z,0
2018-06-25T00:27:40.293Z,0
2018-06-25T00:28:40.997Z,0
2018-06-25T00:29:41.707Z,0
2018-06-25T00:30:42.415Z,0
2018-06-25T00:31:43.126Z,0
2018-06-25T00:32:43.838Z,0
2018-06-25T00:33:44.560Z,0
2018-06-25T00:34:45.276Z,0
2018-06-25T00:35:45.986Z,0
2018-06-25T00:36:46.697Z,0
2018-06-25T00:37:47.406Z,0
2018-06-25T00:38:48.115Z,0
2018-06-25T00:39:48.825Z,0
2018-06-25T00:40:49.538Z,0
2018-06-25T00:41:50.253Z,0
2018-06-25T00:42:50.973Z,0
2018-06-25T00:43:51.696Z,0
2018-06-25T00:44:52.405Z,0
2018-06-25T00:45:53.114Z,0
2018-06-25T00:46:53.823Z,0
2018-06-25T00:47:54.533Z,0
2018-06-25T00:48:55.256Z,0
2018-06-25T00:49:55.966Z,0
2018-06-25T00:50:56.675Z,0
2018-06-25T00:51:57.387Z,0
2018-06-25T00:52:58.106Z,0
2018-06-25T00:53:58.827Z,0
2018-06-25T00:54:59.537Z,0
2018-06-25T00:56:00.246Z,0
2018-06-25T00:57:00.956Z,0
2018-06-25T00:58:01.668Z,0
2018-06-25T00:59:02.379Z,0
2018-06-25T01:00:03.091Z,0
2018-06-25T01:01:03.800Z,0
2018-06-25T01:02:04.513Z,0
2018-06-25T01:03:05.223Z,0
2018-06-25T01:04:05.935Z,0
2018-06-25T01:05:06.651Z,0
2018-06-25T01:06:07.477Z,0
2018-06-25T01:07:08.075Z,0
2018-06-25T01:08:08.786Z,0
2018-06-25T01:09:09.496Z,0
2018-06-25T01:10:10.208Z,0
2018-06-25T01:11:10.929Z,0
2018-06-25T01:12:11.637Z,0
2018-06-25T01:13:12.356Z,0
2018-06-25T01:14:13.066Z,0
2018-06-25T01:15:13.785Z,0
2018-06-25T01:16:14.495Z,0
2018-06-25T01:17:15.205Z,0
2018-06-25T01:18:15.914Z,0
2018-06-25T01:19:16.626Z,0
2018-06-25T01:20:17.335Z,0
2018-06-25T01:21:18.044Z,0
2018-06-25T01:22:18.752Z,0
2018-06-25T01:23:19.461Z,0
2018-06-25T01:24:20.175Z,0
2018-06-25T01:25:20.896Z,0
2018-06-25T01:26:21.613Z,0
2018-06-25T01:27:22.334Z,0
2018-06-25T01:28:23.045Z,0
2018-06-25T01:29:23.755Z,0
2018-06-25T01:30:24.478Z,0
2018-06-25T01:31:25.191Z,0
2018-06-25T01:32:25.903Z,0
2018-06-25T01:33:26.614Z,0
2018-06-25T01:34:27.325Z,0
2018-06-25T01:35:28.037Z,0
2018-06-25T01:36:28.760Z,0
2018-06-25T01:37:29.470Z,0
2018-06-25T01:38:30.181Z,0
2018-06-25T01:39:30.890Z,0
2018-06-25T01:40:31.600Z,0
2018-06-25T01:41:32.310Z,0
2018-06-25T01:42:33.022Z,0
2018-06-25T01:43:33.734Z,0
2018-06-25T01:44:34.443Z,0
2018-06-25T01:45:35.155Z,0
2018-06-25T01:46:35.877Z,0
2018-06-25T01:47:36.585Z,0
2018-06-25T01:48:37.294Z,0
2018-06-25T01:49:38.006Z,0
2018-06-25T01:50:38.717Z,0
2018-06-25T01:51:39.427Z,0
2018-06-25T01:52:40.138Z,0
2018-06-25T01:53:40.850Z,0
2018-06-25T01:54:41.562Z,0
2018-06-25T01:55:42.273Z,0
2018-06-25T01:56:42.984Z,0
2018-06-25T01:57:43.696Z,0
2018-06-25T01:58:44.409Z,0
2018-06-25T01:59:45.130Z,0
2018-06-25T02:00:45.843Z,0
2018-06-25T02:01:46.571Z,0
2018-06-25T02:02:47.285Z,0
2018-06-25T02:03:47.994Z,0
2018-06-25T02:04:48.704Z,0
2018-06-25T02:05:49.413Z,0
2018-06-25T02:06:50.127Z,0
2018-06-25T02:07:50.852Z,0
2018-06-25T02:08:51.563Z,0
2018-06-25T02:09:52.275Z,0
2018-06-25T02:10:52.987Z,0
2018-06-25T02:11:53.698Z,0
2018-06-25T02:12:54.410Z,0
2018-06-25T02:13:55.121Z,0
2018-06-25T02:14:55.834Z,0
2018-06-25T02:15:56.547Z,0
2018-06-25T02:16:57.261Z,0
2018-06-25T02:17:57.970Z,0
2018-06-25T02:18:58.693Z,0
2018-06-25T02:19:59.403Z,0
2018-06-25T02:21:00.112Z,0
2018-06-25T02:22:00.834Z,0
2018-06-25T02:23:01.547Z,0
2018-06-25T02:24:02.258Z,0
2018-06-25T02:25:02.978Z,0
2018-06-25T02:26:03.700Z,0
2018-06-25T02:27:04.412Z,0
2018-06-25T02:28:05.121Z,0
2018-06-25T02:29:05.830Z,0
2018-06-25T02:30:06.544Z,0
2018-06-25T02:31:07.252Z,0
2018-06-25T02:32:07.971Z,0
2018-06-25T02:33:08.673Z,0
2018-06-25T02:34:09.382Z,0
2018-06-25T02:35:10.104Z,0
2018-06-25T02:36:10.815Z,0
2018-06-25T02:37:11.525Z,0
2018-06-25T02:38:12.242Z,0
2018-06-25T02:39:12.945Z,0
2018-06-25T02:40:13.654Z,0
2018-06-25T02:41:14.363Z,0
2018-06-25T02:42:15.092Z,0
2018-06-25T02:43:15.809Z,0
2018-06-25T02:44:16.532Z,0
2018-06-25T02:45:17.241Z,0
2018-06-25T02:46:17.952Z,0
2018-06-25T02:47:18.673Z,0
2018-06-25T02:48:19.386Z,0
2018-06-25T02:49:20.104Z,0
2018-06-25T02:50:20.828Z,0
2018-06-25T02:51:21.540Z,0
2018-06-25T02:52:22.252Z,0
2018-06-25T02:53:22.965Z,0
2018-06-25T02:54:23.675Z,0
2018-06-25T02:55:24.398Z,0
2018-06-25T02:56:25.121Z,0
2018-06-25T02:57:25.848Z,0
2018-06-25T02:58:26.555Z,0
2018-06-25T02:59:27.270Z,0
2018-06-25T03:00:28.011Z,0
2018-06-25T03:01:28.699Z,0
2018-06-25T03:02:29.411Z,0
2018-06-25T03:03:30.133Z,0
2018-06-25T03:04:30.844Z,0
2018-06-25T03:05:31.555Z,0
2018-06-25T03:06:32.278Z,0
2018-06-25T03:07:32.993Z,0
2018-06-25T03:08:33.707Z,0
2018-06-25T03:09:34.425Z,0
2018-06-25T03:10:35.150Z,0
2018-06-25T03:11:35.861Z,0
2018-06-25T03:12:36.575Z,0
2018-06-25T03:13:37.286Z,0
2018-06-25T03:14:37.998Z,0
2018-06-25T03:15:38.709Z,0
2018-06-25T03:16:39.420Z,0
2018-06-25T03:17:40.141Z,0
2018-06-25T03:18:40.852Z,0
2018-06-25T03:19:41.564Z,0
2018-06-25T03:20:42.276Z,0
2018-06-25T03:21:42.989Z,0
2018-06-25T03:22:43.704Z,0
2018-06-25T03:23:44.416Z,0
2018-06-25T03:24:45.127Z,0
2018-06-25T03:25:45.842Z,0
2018-06-25T03:26:46.556Z,0
2018-06-25T03:27:47.267Z,0
2018-06-25T03:28:47.980Z,0
2018-06-25T03:29:48.692Z,0
2018-06-25T03:30:49.421Z,0
2018-06-25T03:31:50.131Z,0
2018-06-25T03:32:50.854Z,5
2018-06-25T03:33:51.576Z,5
2018-06-25T03:34:52.301Z,5
2018-06-25T03:35:53.026Z,5
2018-06-25T03:36:53.741Z,5
2018-06-25T03:37:54.452Z,5
2018-06-25T03:38:55.164Z,5
2018-06-25T03:39:55.879Z,5
2018-06-25T03:40:56.590Z,5
2018-06-25T03:41:57.303Z,5
2018-06-25T03:42:58.018Z,5
2018-06-25T03:43:58.744Z,5
2018-06-25T03:44:59.457Z,5
2018-06-25T03:46:00.170Z,5
2018-06-25T03:47:00.883Z,5
2018-06-25T03:48:01.599Z,5
2018-06-25T03:49:02.315Z,5
2018-06-25T03:50:03.040Z,10
2018-06-25T03:51:03.762Z,10
2018-06-25T03:52:04.477Z,10
2018-06-25T03:53:05.189Z,10
2018-06-25T03:54:05.904Z,10
2018-06-25T03:55:06.620Z,10
2018-06-25T03:56:07.335Z,10
2018-06-25T03:57:08.049Z,10
2018-06-25T03:58:08.773Z,10
2018-06-25T03:59:09.500Z,10
2018-06-25T04:00:10.216Z,10
2018-06-25T04:01:10.946Z,10
2018-06-25T04:02:11.661Z,10
2018-06-25T04:03:12.371Z,10
2018-06-25T04:04:13.084Z,10
2018-06-25T04:05:13.809Z,10
2018-06-25T04:06:14.521Z,10
2018-06-25T04:07:15.236Z,10
2018-06-25T04:08:15.953Z,10
2018-06-25T04:09:16.677Z,15
2018-06-25T04:10:17.391Z,15
2018-06-25T04:11:18.117Z,15
2018-06-25T04:12:18.832Z,20
2018-06-25T04:13:19.560Z,15
2018-06-25T04:14:20.279Z,15
2018-06-25T04:15:20.990Z,10
2018-06-25T04:16:21.704Z,10
2018-06-25T04:17:22.418Z,10
2018-06-25T04:18:23.136Z,10
2018-06-25T04:19:23.859Z,15
2018-06-25T04:20:24.575Z,15
2018-06-25T04:21:25.302Z,15
2018-06-25T04:22:26.015Z,20
2018-06-25T04:23:26.730Z,20
2018-06-25T04:24:27.445Z,20
2018-06-25T04:25:28.158Z,15
2018-06-25T04:26:28.873Z,20
2018-06-25T04:27:29.589Z,15
2018-06-25T04:28:30.304Z,20
2018-06-25T04:29:31.018Z,15
2018-06-25T04:30:31.733Z,15
2018-06-25T04:31:32.445Z,20
2018-06-25T04:32:33.173Z,20
2018-06-25T04:33:33.899Z,25
2018-06-25T04:34:34.623Z,25
2018-06-25T04:35:35.340Z,30
2018-06-25T04:36:36.057Z,30
2018-06-25T04:37:36.773Z,30
2018-06-25T04:38:37.489Z,30
2018-06-25T04:39:38.204Z,30
2018-06-25T04:40:38.929Z,35
2018-06-25T04:41:39.659Z,35
2018-06-25T04:42:40.376Z,35
2018-06-25T04:43:41.104Z,35
2018-06-25T04:44:41.820Z,40
2018-06-25T04:45:42.536Z,40
2018-06-25T04:46:43.249Z,30
2018-06-25T04:47:43.978Z,30
2018-06-25T04:48:44.693Z,25
2018-06-25T04:49:45.422Z,25
2018-06-25T04:50:46.149Z,25
2018-06-25T04:51:46.864Z,25
2018-06-25T04:52:47.579Z,30
2018-06-25T04:53:48.309Z,25
2018-06-25T04:54:49.022Z,30
2018-06-25T04:55:49.737Z,30
2018-06-25T04:56:50.453Z,40
2018-06-25T04:57:51.169Z,40
2018-06-25T04:58:51.886Z,40
2018-06-25T04:59:52.616Z,35
2018-06-25T05:00:53.365Z,35
2018-06-25T05:01:54.059Z,35
2018-06-25T05:02:54.778Z,30
2018-06-25T05:03:55.503Z,30
2018-06-25T05:04:56.223Z,25
2018-06-25T05:05:56.947Z,25
2018-06-25T05:06:57.664Z,25
2018-06-25T05:07:58.390Z,25
2018-06-25T05:08:59.105Z,25
2018-06-25T05:09:59.821Z,25
2018-06-25T05:11:00.537Z,25
2018-06-25T05:12:01.255Z,25
2018-06-25T05:13:01.966Z,30
2018-06-25T05:14:02.695Z,30
2018-06-25T05:15:03.410Z,35
2018-06-25T05:16:04.137Z,35
2018-06-25T05:17:04.852Z,35
2018-06-25T05:18:05.568Z,50
2018-06-25T05:19:06.288Z,60
2018-06-25T05:20:07.016Z,60
2018-06-25T05:21:07.732Z,50
2018-06-25T05:22:08.451Z,45
2018-06-25T05:23:09.185Z,50
2018-06-25T05:24:09.894Z,40
2018-06-25T05:25:10.612Z,40
2018-06-25T05:26:11.341Z,40
2018-06-25T05:27:12.057Z,40
2018-06-25T05:28:12.773Z,40
2018-06-25T05:29:13.524Z,45
2018-06-25T05:30:14.203Z,40
2018-06-25T05:31:14.933Z,35
2018-06-25T05:32:15.650Z,35
2018-06-25T05:33:16.367Z,40
2018-06-25T05:34:17.082Z,45
2018-06-25T05:35:17.798Z,50
2018-06-25T05:36:18.516Z,60
2018-06-25T05:37:19.230Z,65
2018-06-25T05:38:19.961Z,65
2018-06-25T05:39:20.677Z,60
2018-06-25T05:40:21.393Z,60
2018-06-25T05:41:22.110Z,45
2018-06-25T05:42:22.826Z,45
2018-06-25T05:43:23.541Z,40
2018-06-25T05:44:24.260Z,40
2018-06-25T05:45:24.973Z,40
2018-06-25T05:46:25.702Z,40
2018-06-25T05:47:26.419Z,40
2018-06-25T05:48:27.136Z,45
2018-06-25T05:49:27.852Z,55
2018-06-25T05:50:28.569Z,60
2018-06-25T05:51:29.296Z,80
2018-06-25T05:52:30.025Z,70
2018-06-25T05:53:30.742Z,55
2018-06-25T05:54:31.471Z,60
2018-06-25T05:55:32.193Z,60
2018-06-25T05:56:32.908Z,60
2018-06-25T05:57:33.624Z,70
2018-06-25T05:58:34.341Z,75
2018-06-25T05:59:35.069Z,85
2018-06-25T06:00:35.786Z,100
2018-06-25T06:01:36.505Z,120
2018-06-25T06:02:37.234Z,115
2018-06-25T06:03:37.953Z,120
2018-06-25T06:04:38.670Z,140
2018-06-25T06:05:39.391Z,135
2018-06-25T06:06:40.110Z,140
2018-06-25T06:07:40.827Z,155
2018-06-25T06:08:41.562Z,140
2018-06-25T06:09:42.291Z,105
2018-06-25T06:10:43.021Z,70
2018-06-25T06:11:43.738Z,65
2018-06-25T06:12:44.455Z,55
2018-06-25T06:13:45.172Z,65
2018-06-25T06:14:45.892Z,70
2018-06-25T06:15:46.603Z,85
2018-06-25T06:16:47.321Z,90
2018-06-25T06:17:48.041Z,105
2018-06-25T06:18:48.760Z,135
2018-06-25T06:19:49.478Z,160
2018-06-25T06:20:50.195Z,160
2018-06-25T06:21:50.914Z,140
2018-06-25T06:22:51.632Z,115
2018-06-25T06:23:52.351Z,100
2018-06-25T06:24:53.071Z,105
2018-06-25T06:25:53.791Z,100
2018-06-25T06:26:54.509Z,110
2018-06-25T06:27:55.228Z,110
2018-06-25T06:28:55.947Z,90
2018-06-25T06:29:56.663Z,90
2018-06-25T06:30:57.399Z,90
2018-06-25T06:31:58.116Z,90
2018-06-25T06:32:58.832Z,80
2018-06-25T06:33:59.547Z,70
2018-06-25T06:35:00.265Z,90
2018-06-25T06:36:01.008Z,110
2018-06-25T06:37:01.712Z,110
2018-06-25T06:38:02.431Z,100
2018-06-25T06:39:03.147Z,95
2018-06-25T06:40:03.880Z,85
2018-06-25T06:41:04.594Z,85
2018-06-25T06:42:05.310Z,90
2018-06-25T06:43:06.029Z,85
2018-06-25T06:44:06.758Z,100
2018-06-25T06:45:07.488Z,95
2018-06-25T06:46:08.206Z,110
2018-06-25T06:47:08.925Z,115
2018-06-25T06:48:09.656Z,135
2018-06-25T06:49:10.375Z,155
2018-06-25T06:50:11.095Z,170
2018-06-25T06:51:11.815Z,170
2018-06-25T06:52:12.531Z,175
2018-06-25T06:53:13.248Z,210
2018-06-25T06:54:13.969Z,235
2018-06-25T06:55:14.688Z,245
2018-06-25T06:56:15.413Z,235
2018-06-25T06:57:16.137Z,215
2018-06-25T06:58:16.856Z,185
2018-06-25T06:59:17.574Z,160
2018-06-25T07:00:18.294Z,120
2018-06-25T07:01:19.025Z,105
2018-06-25T07:02:19.741Z,100
2018-06-25T07:03:20.459Z,75
2018-06-25T07:04:21.175Z,80
2018-06-25T07:05:21.907Z,90
2018-06-25T07:06:22.626Z,100
2018-06-25T07:07:23.343Z,95
2018-06-25T07:08:24.061Z,95
2018-06-25T07:09:24.793Z,140
2018-06-25T07:10:25.555Z,190
2018-06-25T07:11:26.228Z,265
2018-06-25T07:12:26.949Z,255
2018-06-25T07:13:27.668Z,245
2018-06-25T07:14:28.387Z,295
2018-06-25T07:15:29.105Z,320
2018-06-25T07:16:29.836Z,295
2018-06-25T07:17:30.561Z,275
2018-06-25T07:18:31.289Z,300
2018-06-25T07:19:32.010Z,285
2018-06-25T07:20:32.729Z,245
2018-06-25T07:21:33.462Z,165
2018-06-25T07:22:34.180Z,180
2018-06-25T07:23:34.899Z,205
2018-06-25T07:24:35.628Z,275
2018-06-25T07:25:36.346Z,210
2018-06-25T07:26:37.067Z,150
2018-06-25T07:27:37.797Z,140
2018-06-25T07:28:38.514Z,130
2018-06-25T07:29:39.236Z,125
2018-06-25T07:30:39.949Z,110
2018-06-25T07:31:40.668Z,110
2018-06-25T07:32:41.388Z,110
2018-06-25T07:33:42.105Z,105
2018-06-25T07:34:42.825Z,100
2018-06-25T07:35:43.543Z,105
2018-06-25T07:36:44.265Z,115
2018-06-25T07:37:44.982Z,125
2018-06-25T07:38:45.700Z,180
2018-06-25T07:39:46.418Z,235
2018-06-25T07:40:47.136Z,275
2018-06-25T07:41:47.859Z,265
2018-06-25T07:42:48.586Z,270
2018-06-25T07:43:49.317Z,295
2018-06-25T07:44:50.036Z,290
2018-06-25T07:45:50.758Z,255
2018-06-25T07:46:51.486Z,225
2018-06-25T07:47:52.208Z,185
2018-06-25T07:48:52.930Z,150
2018-06-25T07:49:53.648Z,120
2018-06-25T07:50:54.365Z,105
2018-06-25T07:51:55.082Z,100
2018-06-25T07:52:55.803Z,135
2018-06-25T07:53:56.524Z,140
2018-06-25T07:54:57.244Z,150
2018-06-25T07:55:57.966Z,165
2018-06-25T07:56:58.684Z,200
2018-06-25T07:57:59.415Z,250
2018-06-25T07:59:00.135Z,280
2018-06-25T08:00:00.856Z,300
2018-06-25T08:01:01.575Z,345
2018-06-25T08:02:02.297Z,335
2018-06-25T08:03:03.031Z,310
2018-06-25T08:04:03.752Z,315
2018-06-25T08:05:04.475Z,335
2018-06-25T08:06:05.207Z,305
2018-06-25T08:07:05.929Z,265
2018-06-25T08:08:06.649Z,265
2018-06-25T08:09:07.365Z,265
2018-06-25T08:10:08.097Z,245
2018-06-25T08:11:08.810Z,230
2018-06-25T08:12:09.529Z,200
2018-06-25T08:13:10.260Z,205
2018-06-25T08:14:10.978Z,240
2018-06-25T08:15:11.698Z,225
2018-06-25T08:16:12.424Z,245
2018-06-25T08:17:13.150Z,290
2018-06-25T08:18:13.886Z,295
2018-06-25T08:19:14.607Z,310
2018-06-25T08:20:15.387Z,330
2018-06-25T08:21:16.051Z,360
2018-06-25T08:22:16.768Z,390
2018-06-25T08:23:17.503Z,395
2018-06-25T08:24:18.227Z,400
2018-06-25T08:25:18.954Z,390
2018-06-25T08:26:19.677Z,370
2018-06-25T08:27:20.401Z,355
2018-06-25T08:28:21.121Z,335
2018-06-25T08:29:21.854Z,310
2018-06-25T08:30:22.587Z,290
2018-06-25T08:31:23.307Z,290
2018-06-25T08:32:24.028Z,270
2018-06-25T08:33:24.746Z,230
2018-06-25T08:34:25.665Z,240
2018-06-25T08:35:26.205Z,280
2018-06-25T08:36:26.928Z,295
2018-06-25T08:37:27.649Z,265
2018-06-25T08:38:28.370Z,210
2018-06-25T08:39:29.093Z,200
2018-06-25T08:40:29.812Z,185
2018-06-25T08:41:30.534Z,180
2018-06-25T08:42:31.252Z,200
2018-06-25T08:43:32.013Z,230
2018-06-25T08:44:32.709Z,290
2018-06-25T08:45:33.442Z,305
2018-06-25T08:46:34.163Z,295
2018-06-25T08:47:34.897Z,320
2018-06-25T08:48:35.628Z,365
2018-06-25T08:49:36.351Z,365
2018-06-25T08:50:37.072Z,355
2018-06-25T08:51:37.871Z,340
2018-06-25T08:52:38.518Z,330
2018-06-25T08:53:39.239Z,300
2018-06-25T08:54:39.961Z,320
2018-06-25T08:55:40.681Z,295
2018-06-25T08:56:41.403Z,245
2018-06-25T08:57:42.124Z,345
2018-06-25T08:58:42.847Z,380
2018-06-25T08:59:43.568Z,405
2018-06-25T09:00:44.293Z,340
2018-06-25T09:01:45.029Z,340
2018-06-25T09:02:45.735Z,270
2018-06-25T09:03:46.455Z,200
2018-06-25T09:04:47.176Z,170
2018-06-25T09:05:47.897Z,175
2018-06-25T09:06:48.620Z,160
2018-06-25T09:07:49.350Z,195
2018-06-25T09:08:50.071Z,240
2018-06-25T09:09:50.797Z,205
2018-06-25T09:10:51.520Z,235
2018-06-25T09:11:52.239Z,275
2018-06-25T09:12:52.974Z,300
2018-06-25T09:13:53.694Z,510
2018-06-25T09:14:54.415Z,420
2018-06-25T09:15:55.135Z,405
2018-06-25T09:16:55.857Z,380
2018-06-25T09:17:56.580Z,395
2018-06-25T09:18:57.302Z,455
2018-06-25T09:19:58.024Z,450
2018-06-25T09:20:58.747Z,470
2018-06-25T09:21:59.500Z,960
2018-06-25T09:23:00.189Z,930
2018-06-25T09:24:00.912Z,535
2018-06-25T09:25:01.639Z,400
2018-06-25T09:26:02.369Z,400
2018-06-25T09:27:03.108Z,345
2018-06-25T09:28:03.826Z,475
2018-06-25T09:29:04.550Z,525
2018-06-25T09:30:05.274Z,580
2018-06-25T09:31:05.997Z,590
2018-06-25T09:32:06.718Z,575
2018-06-25T09:33:07.443Z,555
2018-06-25T09:34:08.171Z,485
2018-06-25T09:35:08.919Z,445
2018-06-25T09:36:09.627Z,480
2018-06-25T09:37:10.369Z,460
2018-06-25T09:38:11.097Z,505
2018-06-25T09:39:11.818Z,525
2018-06-25T09:40:12.547Z,520
2018-06-25T09:41:13.326Z,460
2018-06-25T09:42:13.998Z,450
2018-06-25T09:43:14.726Z,620
2018-06-25T09:44:15.445Z,710
2018-06-25T09:45:16.172Z,670
2018-06-25T09:46:16.907Z,690
2018-06-25T09:47:17.627Z,680
2018-06-25T09:48:18.368Z,605
2018-06-25T09:49:19.095Z,605
2018-06-25T09:50:19.819Z,680
2018-06-25T09:51:20.546Z,580
2018-06-25T09:52:21.274Z,665
2018-06-25T09:53:22.004Z,1245
2018-06-25T09:54:22.741Z,640
2018-06-25T09:55:23.470Z,490
2018-06-25T09:56:24.200Z,535
2018-06-25T09:57:24.930Z,520
2018-06-25T09:58:25.669Z,535
2018-06-25T09:59:26.397Z,575
2018-06-25T10:00:27.126Z,690
2018-06-25T10:01:27.854Z,1540
2018-06-25T10:02:28.594Z,1735
2018-06-25T10:03:29.347Z,840
2018-06-25T10:04:30.051Z,415
2018-06-25T10:05:30.782Z,390
2018-06-25T10:06:31.510Z,455
2018-06-25T10:07:32.238Z,530
2018-06-25T10:08:32.968Z,530
2018-06-25T10:09:33.697Z,605
2018-06-25T10:10:34.497Z,685
2018-06-25T10:11:35.165Z,665
2018-06-25T10:12:35.892Z,695
2018-06-25T10:13:36.624Z,620
2018-06-25T10:14:37.362Z,750
2018-06-25T10:15:38.093Z,845
2018-06-25T10:16:38.837Z,810
2018-06-25T10:17:39.564Z,925
2018-06-25T10:18:40.308Z,1105
2018-06-25T10:19:41.034Z,1000
2018-06-25T10:20:41.766Z,875
2018-06-25T10:21:42.495Z,505
2018-06-25T10:22:43.242Z,360
2018-06-25T10:23:43.960Z,260
2018-06-25T10:24:44.688Z,205
2018-06-25T10:25:45.418Z,200
2018-06-25T10:26:46.147Z,205
2018-06-25T10:27:46.876Z,230
2018-06-25T10:28:47.608Z,315
2018-06-25T10:29:48.347Z,405
2018-06-25T10:30:49.085Z,470
2018-06-25T10:31:49.813Z,800
2018-06-25T10:32:50.546Z,2480
2018-06-25T10:33:51.277Z,2315
2018-06-25T10:34:52.028Z,2150
2018-06-25T10:35:52.738Z,2075
2018-06-25T10:36:53.465Z,940
2018-06-25T10:37:54.206Z,480
2018-06-25T10:38:54.934Z,425
2018-06-25T10:39:55.672Z,340
2018-06-25T10:40:57.414Z,310
2018-06-25T10:41:58.193Z,265
2018-06-25T10:42:58.875Z,235
2018-06-25T10:43:59.612Z,210
2018-06-25T10:45:00.351Z,200
2018-06-25T10:46:01.078Z,200
2018-06-25T10:47:01.819Z,205
2018-06-25T10:48:02.556Z,200
2018-06-25T10:49:03.299Z,215
2018-06-25T10:50:04.024Z,255
2018-06-25T10:51:04.763Z,335
2018-06-25T10:52:05.493Z,460
2018-06-25T10:53:06.223Z,445
2018-06-25T10:54:06.949Z,525
2018-06-25T10:55:07.678Z,610
2018-06-25T10:56:08.408Z,1115
2018-06-25T10:57:09.137Z,1215
2018-06-25T10:58:09.884Z,1320
2018-06-25T10:59:10.602Z,1300
2018-06-25T11:00:11.647Z,1435
2018-06-25T11:01:12.166Z,1320
2018-06-25T11:02:12.802Z,845
2018-06-25T11:03:13.534Z,825
2018-06-25T11:04:14.273Z,1450
2018-06-25T11:05:15.015Z,1615
2018-06-25T11:06:15.744Z,2330
2018-06-25T11:07:16.496Z,1995
2018-06-25T11:08:17.212Z,1845
2018-06-25T11:09:17.955Z,1945
2018-06-25T11:10:18.687Z,1845
2018-06-25T11:11:19.418Z,1765
2018-06-25T11:12:20.166Z,1520
2018-06-25T11:13:20.895Z,1635
2018-06-25T11:14:21.624Z,810
2018-06-25T11:15:22.357Z,2140
2018-06-25T11:16:23.091Z,2195
2018-06-25T11:17:23.819Z,1615
2018-06-25T11:18:24.565Z,1585
2018-06-25T11:19:25.305Z,575
2018-06-25T11:20:26.038Z,1000
2018-06-25T11:21:26.769Z,385
2018-06-25T11:22:27.498Z,355
2018-06-25T11:23:28.231Z,310
2018-06-25T11:24:28.961Z,310
2018-06-25T11:25:29.700Z,370
2018-06-25T11:26:30.434Z,425
2018-06-25T11:27:31.175Z,440
2018-06-25T11:28:31.890Z,450
2018-06-25T11:29:32.630Z,645
2018-06-25T11:30:33.357Z,1595
2018-06-25T11:31:34.087Z,1190
2018-06-25T11:32:34.829Z,1030
2018-06-25T11:33:35.560Z,1210
2018-06-25T11:34:36.326Z,1340
2018-06-25T11:35:37.030Z,860
2018-06-25T11:36:37.758Z,765
2018-06-25T11:37:38.499Z,1275
2018-06-25T11:38:39.229Z,1275
2018-06-25T11:39:39.958Z,1875
2018-06-25T11:40:40.699Z,1690
2018-06-25T11:41:41.477Z,2295
2018-06-25T11:42:42.161Z,2995
2018-06-25T11:43:42.893Z,1855
2018-06-25T11:44:43.624Z,2250
2018-06-25T11:45:44.368Z,2195
2018-06-25T11:46:45.100Z,1315
2018-06-25T11:47:45.830Z,620
2018-06-25T11:48:46.562Z,610
2018-06-25T11:49:47.297Z,575
2018-06-25T11:50:48.035Z,310
2018-06-25T11:51:48.880Z,265
2018-06-25T11:52:49.493Z,230
2018-06-25T11:53:50.220Z,240
2018-06-25T11:54:50.950Z,255
2018-06-25T11:55:51.673Z,320
2018-06-25T11:56:52.400Z,445
2018-06-25T11:57:53.133Z,1070
2018-06-25T11:58:53.861Z,500
2018-06-25T11:59:54.603Z,960
2018-06-25T12:00:55.330Z,1885
2018-06-25T12:01:56.104Z,2700
2018-06-25T12:02:56.907Z,2660
2018-06-25T12:03:57.540Z,2705
2018-06-25T12:04:58.267Z,2705
2018-06-25T12:05:59.000Z,2650
2018-06-25T12:06:59.732Z,2425
2018-06-25T12:08:00.466Z,2375
2018-06-25T12:09:01.201Z,2525
2018-06-25T12:10:01.944Z,1695
2018-06-25T12:11:02.678Z,2215
2018-06-25T12:12:03.458Z,1475
2018-06-25T12:13:04.152Z,2100
2018-06-25T12:14:04.960Z,1535
2018-06-25T12:15:05.638Z,2590
2018-06-25T12:16:06.386Z,2605
2018-06-25T12:17:07.133Z,2715
2018-06-25T12:18:07.870Z,755
2018-06-25T12:19:08.679Z,2480
2018-06-25T12:20:09.393Z,450
2018-06-25T12:21:10.094Z,455
2018-06-25T12:22:10.824Z,465
2018-06-25T12:23:11.706Z,2510
2018-06-25T12:24:12.301Z,490
2018-06-25T12:25:13.033Z,480
2018-06-25T12:26:13.777Z,1075
2018-06-25T12:27:14.511Z,1130
2018-06-25T12:28:15.250Z,2400
2018-06-25T12:29:15.981Z,1360
2018-06-25T12:30:16.715Z,1510
2018-06-25T12:31:17.448Z,2535
2018-06-25T12:32:18.181Z,1890
2018-06-25T12:33:18.927Z,2515
2018-06-25T12:34:19.665Z,2025
2018-06-25T12:35:20.405Z,2145
2018-06-25T12:36:21.145Z,2315
2018-06-25T12:37:21.884Z,1805
2018-06-25T12:38:22.623Z,1830
2018-06-25T12:39:23.370Z,1575
2018-06-25T12:40:24.108Z,1765
2018-06-25T12:41:24.918Z,1645
2018-06-25T12:42:25.599Z,755
2018-06-25T12:43:26.337Z,640
2018-06-25T12:44:27.077Z,1180
2018-06-25T12:45:27.813Z,955
2018-06-25T12:46:28.548Z,1125
2018-06-25T12:47:29.280Z,815
2018-06-25T12:48:30.078Z,790
2018-06-25T12:49:30.819Z,830
2018-06-25T12:50:31.552Z,770
2018-06-25T12:51:32.281Z,730
2018-06-25T12:52:33.017Z,755
2018-06-25T12:53:33.743Z,765
2018-06-25T12:54:34.474Z,795
2018-06-25T12:55:35.204Z,805
2018-06-25T12:56:35.936Z,950
2018-06-25T12:57:36.665Z,855
2018-06-25T12:58:37.396Z,1000
2018-06-25T12:59:38.124Z,740
2018-06-25T13:00:38.855Z,1275
2018-06-25T13:01:39.600Z,1495
2018-06-25T13:02:40.337Z,1670
2018-06-25T13:03:41.072Z,655
2018-06-25T13:04:41.812Z,1350
2018-06-25T13:05:42.556Z,660
2018-06-25T13:06:43.287Z,1345
2018-06-25T13:07:44.015Z,650
2018-06-25T13:08:44.755Z,585
2018-06-25T13:09:45.484Z,605
2018-06-25T13:10:46.257Z,2350
2018-06-25T13:11:46.952Z,2390
2018-06-25T13:12:47.682Z,1135
2018-06-25T13:13:48.413Z,2165
2018-06-25T13:14:49.166Z,2355
2018-06-25T13:15:49.886Z,745
2018-06-25T13:16:50.629Z,370
2018-06-25T13:17:51.360Z,405
2018-06-25T13:18:52.091Z,2410
2018-06-25T13:19:52.824Z,2325
2018-06-25T13:20:53.555Z,2190
2018-06-25T13:21:54.289Z,2205
2018-06-25T13:22:55.020Z,2195
2018-06-25T13:23:55.755Z,2135
2018-06-25T13:24:56.488Z,265
2018-06-25T13:25:57.225Z,2145
2018-06-25T13:26:57.961Z,705
2018-06-25T13:27:58.694Z,420
2018-06-25T13:28:59.427Z,2335
2018-06-25T13:30:00.160Z,2350
2018-06-25T13:31:00.971Z,2270
2018-06-25T13:32:01.643Z,2215
2018-06-25T13:33:02.378Z,2235
2018-06-25T13:34:03.114Z,2255
2018-06-25T13:35:03.850Z,2260
2018-06-25T13:36:04.593Z,2260
2018-06-25T13:37:05.330Z,2290
2018-06-25T13:38:06.117Z,2220
2018-06-25T13:39:06.806Z,2210
2018-06-25T13:40:07.549Z,440
2018-06-25T13:41:08.283Z,340
2018-06-25T13:42:09.034Z,460
2018-06-25T13:43:09.782Z,1735
2018-06-25T13:44:10.516Z,2440
2018-06-25T13:45:11.249Z,2245
2018-06-25T13:46:11.988Z,2195
2018-06-25T13:47:12.721Z,2340
2018-06-25T13:48:13.468Z,2205
2018-06-25T13:49:14.201Z,2205
2018-06-25T13:50:14.944Z,2050
2018-06-25T13:51:15.684Z,2000
2018-06-25T13:52:16.426Z,1660
2018-06-25T13:53:17.177Z,320
2018-06-25T13:54:17.918Z,385
2018-06-25T13:55:18.651Z,2110
2018-06-25T13:56:19.389Z,2155
2018-06-25T13:57:20.127Z,2090
2018-06-25T13:58:20.866Z,2095
2018-06-25T13:59:21.603Z,695
2018-06-25T14:00:22.350Z,1065
2018-06-25T14:01:23.084Z,1915
2018-06-25T14:02:23.823Z,1750
2018-06-25T14:03:24.560Z,1830
2018-06-25T14:04:25.315Z,1820
2018-06-25T14:05:26.045Z,1815
2018-06-25T14:06:26.783Z,1960
2018-06-25T14:07:27.528Z,355
2018-06-25T14:08:28.259Z,285
2018-06-25T14:09:29.006Z,255
2018-06-25T14:10:29.736Z,265
2018-06-25T14:11:30.467Z,280
2018-06-25T14:12:31.195Z,285